sensor_id;sensor_type;location;lat;lon;timestamp;P1;durP1;ratioP1;P2;durP2;ratioP2
41343;SDS011;27089;50.022;7.604;2023-02-07T00:01:30;5.50;;;3.60;;
41343;SDS011;27089;50.022;7.604;2023-02-07T00:03:59;6.03;;;3.63;;
41343;SDS011;27089;50.022;7.604;2023-02-07T00:06:29;5.53;;;3.37;;
41343;SDS011;27089;50.022;7.604;2023-02-07T00:08:57;7.07;;;3.33;;
41343;SDS011;27089;50.022;7.604;2023-02-07T00:11:25;9.50;;;3.33;;
41343;SDS011;27089;50.022;7.604;2023-02-07T00:13:52;6.07;;;3.27;;
41343;SDS011;27089;50.022;7.604;2023-02-07T00:16:21;6.63;;;3.57;;
41343;SDS011;27089;50.022;7.604;2023-02-07T00:18:49;8.33;;;3.57;;
41343;SDS011;27089;50.022;7.604;2023-02-07T00:21:20;5.17;;;2.60;;
41343;SDS011;27089;50.022;7.604;2023-02-07T00:23:48;6.50;;;3.67;;
41343;SDS011;27089;50.022;7.604;2023-02-07T00:26:16;6.60;;;3.33;;
41343;SDS011;27089;50.022;7.604;2023-02-07T00:28:46;6.67;;;3.23;;
41343;SDS011;27089;50.022;7.604;2023-02-07T00:31:15;7.47;;;3.50;;
41343;SDS011;27089;50.022;7.604;2023-02-07T00:33:44;5.60;;;3.50;;
41343;SDS011;27089;50.022;7.604;2023-02-07T00:36:15;6.60;;;3.43;;
41343;SDS011;27089;50.022;7.604;2023-02-07T00:38:45;4.80;;;3.03;;
41343;SDS011;27089;50.022;7.604;2023-02-07T00:41:13;6.43;;;3.47;;
41343;SDS011;27089;50.022;7.604;2023-02-07T00:43:43;6.63;;;3.43;;
41343;SDS011;27089;50.022;7.604;2023-02-07T00:46:11;6.10;;;3.20;;
41343;SDS011;27089;50.022;7.604;2023-02-07T00:48:38;6.73;;;3.53;;
41343;SDS011;27089;50.022;7.604;2023-02-07T00:51:05;7.83;;;3.70;;
41343;SDS011;27089;50.022;7.604;2023-02-07T00:53:33;6.00;;;3.43;;
41343;SDS011;27089;50.022;7.604;2023-02-07T00:56:01;4.30;;;2.80;;
41343;SDS011;27089;50.022;7.604;2023-02-07T00:58:28;6.27;;;3.47;;
41343;SDS011;27089;50.022;7.604;2023-02-07T01:00:55;5.30;;;3.00;;
41343;SDS011;27089;50.022;7.604;2023-02-07T01:03:23;4.23;;;3.00;;
41343;SDS011;27089;50.022;7.604;2023-02-07T01:05:50;5.97;;;3.30;;
41343;SDS011;27089;50.022;7.604;2023-02-07T01:08:17;5.37;;;3.10;;
41343;SDS011;27089;50.022;7.604;2023-02-07T01:10:44;5.10;;;2.90;;
41343;SDS011;27089;50.022;7.604;2023-02-07T01:13:13;6.33;;;3.43;;
41343;SDS011;27089;50.022;7.604;2023-02-07T01:15:41;6.17;;;3.73;;
41343;SDS011;27089;50.022;7.604;2023-02-07T01:18:10;6.03;;;3.33;;
41343;SDS011;27089;50.022;7.604;2023-02-07T01:20:37;6.40;;;3.50;;
41343;SDS011;27089;50.022;7.604;2023-02-07T01:23:04;4.63;;;3.70;;
41343;SDS011;27089;50.022;7.604;2023-02-07T01:25:32;3.73;;;3.10;;
41343;SDS011;27089;50.022;7.604;2023-02-07T01:27:59;6.00;;;3.87;;
41343;SDS011;27089;50.022;7.604;2023-02-07T01:30:27;4.90;;;3.63;;
41343;SDS011;27089;50.022;7.604;2023-02-07T01:32:55;4.70;;;3.40;;
41343;SDS011;27089;50.022;7.604;2023-02-07T01:35:22;8.93;;;3.40;;
41343;SDS011;27089;50.022;7.604;2023-02-07T01:37:49;4.60;;;2.90;;
41343;SDS011;27089;50.022;7.604;2023-02-07T01:40:16;4.37;;;3.30;;
41343;SDS011;27089;50.022;7.604;2023-02-07T01:42:43;4.97;;;3.27;;
41343;SDS011;27089;50.022;7.604;2023-02-07T01:45:24;6.23;;;3.00;;
41343;SDS011;27089;50.022;7.604;2023-02-07T01:47:58;4.23;;;3.17;;
41343;SDS011;27089;50.022;7.604;2023-02-07T01:50:28;5.00;;;3.13;;
41343;SDS011;27089;50.022;7.604;2023-02-07T01:52:56;4.27;;;3.20;;
41343;SDS011;27089;50.022;7.604;2023-02-07T01:55:26;6.80;;;3.10;;
41343;SDS011;27089;50.022;7.604;2023-02-07T01:57:56;5.53;;;3.30;;
41343;SDS011;27089;50.022;7.604;2023-02-07T02:00:24;6.33;;;3.47;;
41343;SDS011;27089;50.022;7.604;2023-02-07T02:02:52;6.43;;;3.60;;
41343;SDS011;27089;50.022;7.604;2023-02-07T02:05:19;6.07;;;3.67;;
41343;SDS011;27089;50.022;7.604;2023-02-07T02:07:47;4.07;;;2.73;;
41343;SDS011;27089;50.022;7.604;2023-02-07T02:10:15;4.30;;;2.93;;
41343;SDS011;27089;50.022;7.604;2023-02-07T02:12:52;4.40;;;3.23;;
41343;SDS011;27089;50.022;7.604;2023-02-07T02:15:31;4.50;;;2.83;;
41343;SDS011;27089;50.022;7.604;2023-02-07T02:18:08;3.93;;;2.70;;
41343;SDS011;27089;50.022;7.604;2023-02-07T02:23:58;3.87;;;2.87;;
41343;SDS011;27089;50.022;7.604;2023-02-07T02:27:00;6.10;;;3.27;;
41343;SDS011;27089;50.022;7.604;2023-02-07T02:35:34;4.00;;;2.70;;
41343;SDS011;27089;50.022;7.604;2023-02-07T02:38:10;5.27;;;2.90;;
41343;SDS011;27089;50.022;7.604;2023-02-07T02:40:43;5.90;;;3.53;;
41343;SDS011;27089;50.022;7.604;2023-02-07T02:43:18;4.93;;;3.23;;
41343;SDS011;27089;50.022;7.604;2023-02-07T02:45:52;4.20;;;2.97;;
41343;SDS011;27089;50.022;7.604;2023-02-07T02:48:23;5.67;;;3.57;;
41343;SDS011;27089;50.022;7.604;2023-02-07T02:50:52;5.97;;;3.80;;
41343;SDS011;27089;50.022;7.604;2023-02-07T02:53:23;7.27;;;3.37;;
41343;SDS011;27089;50.022;7.604;2023-02-07T02:55:55;5.47;;;3.20;;
41343;SDS011;27089;50.022;7.604;2023-02-07T02:58:42;4.40;;;2.40;;
41343;SDS011;27089;50.022;7.604;2023-02-07T03:01:20;4.03;;;2.40;;
41343;SDS011;27089;50.022;7.604;2023-02-07T03:04:00;4.67;;;2.73;;
41343;SDS011;27089;50.022;7.604;2023-02-07T03:06:45;4.17;;;2.93;;
41343;SDS011;27089;50.022;7.604;2023-02-07T03:09:25;3.10;;;2.40;;
41343;SDS011;27089;50.022;7.604;2023-02-07T03:12:09;3.63;;;2.60;;
41343;SDS011;27089;50.022;7.604;2023-02-07T03:14:45;3.23;;;2.60;;
41343;SDS011;27089;50.022;7.604;2023-02-07T03:17:20;2.53;;;2.30;;
41343;SDS011;27089;50.022;7.604;2023-02-07T03:19:54;3.30;;;2.43;;
41343;SDS011;27089;50.022;7.604;2023-02-07T03:22:28;4.33;;;2.13;;
41343;SDS011;27089;50.022;7.604;2023-02-07T03:24:57;2.90;;;2.60;;
41343;SDS011;27089;50.022;7.604;2023-02-07T03:27:26;3.63;;;2.50;;
41343;SDS011;27089;50.022;7.604;2023-02-07T03:29:55;3.73;;;2.40;;
41343;SDS011;27089;50.022;7.604;2023-02-07T03:32:26;2.63;;;1.90;;
41343;SDS011;27089;50.022;7.604;2023-02-07T03:34:57;4.37;;;2.10;;
41343;SDS011;27089;50.022;7.604;2023-02-07T03:37:30;3.70;;;2.13;;
41343;SDS011;27089;50.022;7.604;2023-02-07T03:40:01;2.90;;;2.13;;
41343;SDS011;27089;50.022;7.604;2023-02-07T03:42:31;2.60;;;2.30;;
41343;SDS011;27089;50.022;7.604;2023-02-07T03:45:01;3.50;;;2.60;;
41343;SDS011;27089;50.022;7.604;2023-02-07T03:47:30;2.67;;;1.90;;
41343;SDS011;27089;50.022;7.604;2023-02-07T03:49:59;4.00;;;2.73;;
41343;SDS011;27089;50.022;7.604;2023-02-07T03:52:26;2.43;;;1.93;;
41343;SDS011;27089;50.022;7.604;2023-02-07T03:54:53;3.20;;;2.17;;
41343;SDS011;27089;50.022;7.604;2023-02-07T03:57:20;2.93;;;2.03;;
41343;SDS011;27089;50.022;7.604;2023-02-07T03:59:47;3.30;;;2.40;;
41343;SDS011;27089;50.022;7.604;2023-02-07T04:02:14;2.60;;;2.30;;
41343;SDS011;27089;50.022;7.604;2023-02-07T04:04:41;3.27;;;2.50;;
41343;SDS011;27089;50.022;7.604;2023-02-07T04:07:09;3.00;;;2.30;;
41343;SDS011;27089;50.022;7.604;2023-02-07T04:09:37;2.80;;;2.33;;
41343;SDS011;27089;50.022;7.604;2023-02-07T04:12:04;4.40;;;2.70;;
41343;SDS011;27089;50.022;7.604;2023-02-07T04:14:31;3.40;;;2.70;;
41343;SDS011;27089;50.022;7.604;2023-02-07T04:16:58;3.07;;;2.50;;
41343;SDS011;27089;50.022;7.604;2023-02-07T04:19:25;4.53;;;2.70;;
41343;SDS011;27089;50.022;7.604;2023-02-07T04:21:52;4.20;;;2.70;;
41343;SDS011;27089;50.022;7.604;2023-02-07T04:24:20;4.23;;;2.77;;
41343;SDS011;27089;50.022;7.604;2023-02-07T04:26:47;3.73;;;2.77;;
41343;SDS011;27089;50.022;7.604;2023-02-07T04:29:14;3.40;;;2.67;;
41343;SDS011;27089;50.022;7.604;2023-02-07T04:31:41;4.07;;;2.97;;
41343;SDS011;27089;50.022;7.604;2023-02-07T04:34:08;3.93;;;2.87;;
41343;SDS011;27089;50.022;7.604;2023-02-07T04:36:37;3.93;;;2.93;;
41343;SDS011;27089;50.022;7.604;2023-02-07T04:39:04;4.67;;;3.40;;
41343;SDS011;27089;50.022;7.604;2023-02-07T04:41:32;3.87;;;3.30;;
41343;SDS011;27089;50.022;7.604;2023-02-07T04:43:59;4.30;;;3.40;;
41343;SDS011;27089;50.022;7.604;2023-02-07T04:46:26;6.33;;;3.70;;
41343;SDS011;27089;50.022;7.604;2023-02-07T04:48:54;6.13;;;3.83;;
41343;SDS011;27089;50.022;7.604;2023-02-07T04:51:21;6.37;;;3.93;;
41343;SDS011;27089;50.022;7.604;2023-02-07T04:53:48;4.97;;;3.70;;
41343;SDS011;27089;50.022;7.604;2023-02-07T04:56:15;5.70;;;4.30;;
41343;SDS011;27089;50.022;7.604;2023-02-07T04:58:43;4.90;;;3.63;;
41343;SDS011;27089;50.022;7.604;2023-02-07T05:01:10;5.73;;;3.60;;
41343;SDS011;27089;50.022;7.604;2023-02-07T05:03:37;5.13;;;3.93;;
41343;SDS011;27089;50.022;7.604;2023-02-07T05:06:04;6.43;;;4.40;;
41343;SDS011;27089;50.022;7.604;2023-02-07T05:08:31;5.70;;;4.53;;
41343;SDS011;27089;50.022;7.604;2023-02-07T05:10:58;5.63;;;4.40;;
41343;SDS011;27089;50.022;7.604;2023-02-07T05:13:25;6.80;;;4.63;;
41343;SDS011;27089;50.022;7.604;2023-02-07T05:15:53;7.00;;;4.90;;
41343;SDS011;27089;50.022;7.604;2023-02-07T05:18:20;6.93;;;4.83;;
41343;SDS011;27089;50.022;7.604;2023-02-07T05:20:48;6.17;;;4.40;;
41343;SDS011;27089;50.022;7.604;2023-02-07T05:23:15;6.67;;;4.13;;
41343;SDS011;27089;50.022;7.604;2023-02-07T05:25:42;7.20;;;4.87;;
41343;SDS011;27089;50.022;7.604;2023-02-07T05:28:10;7.10;;;4.87;;
41343;SDS011;27089;50.022;7.604;2023-02-07T05:30:37;6.23;;;4.37;;
41343;SDS011;27089;50.022;7.604;2023-02-07T05:33:06;7.07;;;5.37;;
41343;SDS011;27089;50.022;7.604;2023-02-07T05:35:33;6.40;;;4.63;;
41343;SDS011;27089;50.022;7.604;2023-02-07T05:38:01;8.13;;;4.60;;
41343;SDS011;27089;50.022;7.604;2023-02-07T05:40:30;11.27;;;6.37;;
41343;SDS011;27089;50.022;7.604;2023-02-07T05:42:59;7.37;;;4.97;;
41343;SDS011;27089;50.022;7.604;2023-02-07T05:45:26;7.30;;;4.87;;
41343;SDS011;27089;50.022;7.604;2023-02-07T05:47:53;7.07;;;5.00;;
41343;SDS011;27089;50.022;7.604;2023-02-07T05:50:22;7.07;;;4.93;;
41343;SDS011;27089;50.022;7.604;2023-02-07T05:52:49;7.00;;;5.03;;
41343;SDS011;27089;50.022;7.604;2023-02-07T05:55:16;7.63;;;5.33;;
41343;SDS011;27089;50.022;7.604;2023-02-07T05:57:44;8.77;;;5.90;;
41343;SDS011;27089;50.022;7.604;2023-02-07T06:00:13;8.47;;;5.77;;
41343;SDS011;27089;50.022;7.604;2023-02-07T06:02:42;8.03;;;5.27;;
41343;SDS011;27089;50.022;7.604;2023-02-07T06:05:10;8.33;;;5.33;;
41343;SDS011;27089;50.022;7.604;2023-02-07T06:07:41;9.60;;;6.83;;
41343;SDS011;27089;50.022;7.604;2023-02-07T06:10:09;10.27;;;6.67;;
41343;SDS011;27089;50.022;7.604;2023-02-07T06:12:37;7.87;;;5.77;;
41343;SDS011;27089;50.022;7.604;2023-02-07T06:15:05;9.23;;;6.07;;
41343;SDS011;27089;50.022;7.604;2023-02-07T06:17:33;8.77;;;5.67;;
41343;SDS011;27089;50.022;7.604;2023-02-07T06:20:00;9.97;;;6.50;;
41343;SDS011;27089;50.022;7.604;2023-02-07T06:22:27;9.60;;;6.50;;
41343;SDS011;27089;50.022;7.604;2023-02-07T06:24:55;11.73;;;5.90;;
41343;SDS011;27089;50.022;7.604;2023-02-07T06:27:22;8.03;;;5.80;;
41343;SDS011;27089;50.022;7.604;2023-02-07T06:29:49;9.43;;;6.03;;
41343;SDS011;27089;50.022;7.604;2023-02-07T06:32:16;9.20;;;5.90;;
41343;SDS011;27089;50.022;7.604;2023-02-07T06:34:43;8.40;;;6.27;;
41343;SDS011;27089;50.022;7.604;2023-02-07T06:37:10;10.17;;;6.53;;
41343;SDS011;27089;50.022;7.604;2023-02-07T06:39:37;9.40;;;6.37;;
41343;SDS011;27089;50.022;7.604;2023-02-07T06:42:07;11.00;;;6.83;;
41343;SDS011;27089;50.022;7.604;2023-02-07T06:44:34;10.23;;;6.43;;
41343;SDS011;27089;50.022;7.604;2023-02-07T06:47:01;11.50;;;6.87;;
41343;SDS011;27089;50.022;7.604;2023-02-07T06:49:28;9.77;;;5.93;;
41343;SDS011;27089;50.022;7.604;2023-02-07T06:51:55;9.60;;;6.93;;
41343;SDS011;27089;50.022;7.604;2023-02-07T06:54:22;9.87;;;6.67;;
41343;SDS011;27089;50.022;7.604;2023-02-07T06:56:49;10.50;;;6.50;;
41343;SDS011;27089;50.022;7.604;2023-02-07T06:59:17;11.17;;;7.37;;
41343;SDS011;27089;50.022;7.604;2023-02-07T07:01:45;9.53;;;6.73;;
41343;SDS011;27089;50.022;7.604;2023-02-07T07:04:12;9.43;;;6.87;;
41343;SDS011;27089;50.022;7.604;2023-02-07T07:06:39;14.70;;;9.93;;
41343;SDS011;27089;50.022;7.604;2023-02-07T07:09:06;15.50;;;9.53;;
41343;SDS011;27089;50.022;7.604;2023-02-07T07:11:33;52.53;;;29.93;;
41343;SDS011;27089;50.022;7.604;2023-02-07T07:14:03;19.23;;;12.83;;
41343;SDS011;27089;50.022;7.604;2023-02-07T07:16:31;15.90;;;9.73;;
41343;SDS011;27089;50.022;7.604;2023-02-07T07:18:58;12.53;;;8.37;;
41343;SDS011;27089;50.022;7.604;2023-02-07T07:21:25;11.20;;;7.73;;
41343;SDS011;27089;50.022;7.604;2023-02-07T07:23:52;9.97;;;7.23;;
41343;SDS011;27089;50.022;7.604;2023-02-07T07:26:20;11.87;;;8.13;;
41343;SDS011;27089;50.022;7.604;2023-02-07T07:28:47;11.27;;;8.10;;
41343;SDS011;27089;50.022;7.604;2023-02-07T07:31:15;12.80;;;7.90;;
41343;SDS011;27089;50.022;7.604;2023-02-07T07:33:43;11.67;;;7.97;;
41343;SDS011;27089;50.022;7.604;2023-02-07T07:36:10;13.57;;;7.73;;
41343;SDS011;27089;50.022;7.604;2023-02-07T07:38:37;11.33;;;7.30;;
41343;SDS011;27089;50.022;7.604;2023-02-07T07:41:04;10.27;;;6.67;;
41343;SDS011;27089;50.022;7.604;2023-02-07T07:43:31;10.13;;;6.50;;
41343;SDS011;27089;50.022;7.604;2023-02-07T07:45:58;12.23;;;7.27;;
41343;SDS011;27089;50.022;7.604;2023-02-07T07:48:26;10.20;;;7.30;;
41343;SDS011;27089;50.022;7.604;2023-02-07T07:50:55;12.80;;;6.83;;
41343;SDS011;27089;50.022;7.604;2023-02-07T07:53:22;15.50;;;7.53;;
41343;SDS011;27089;50.022;7.604;2023-02-07T07:55:50;13.23;;;7.83;;
41343;SDS011;27089;50.022;7.604;2023-02-07T07:58:19;18.10;;;9.43;;
41343;SDS011;27089;50.022;7.604;2023-02-07T08:00:48;10.57;;;7.10;;
41343;SDS011;27089;50.022;7.604;2023-02-07T08:03:16;10.27;;;7.23;;
41343;SDS011;27089;50.022;7.604;2023-02-07T08:05:44;10.43;;;6.83;;
41343;SDS011;27089;50.022;7.604;2023-02-07T08:08:14;12.40;;;8.10;;
41343;SDS011;27089;50.022;7.604;2023-02-07T08:10:42;14.27;;;7.70;;
41343;SDS011;27089;50.022;7.604;2023-02-07T08:13:09;12.47;;;8.33;;
41343;SDS011;27089;50.022;7.604;2023-02-07T08:15:36;13.67;;;8.40;;
41343;SDS011;27089;50.022;7.604;2023-02-07T08:18:04;13.40;;;8.57;;
41343;SDS011;27089;50.022;7.604;2023-02-07T08:20:31;9.67;;;6.40;;
41343;SDS011;27089;50.022;7.604;2023-02-07T08:22:58;13.63;;;7.40;;
41343;SDS011;27089;50.022;7.604;2023-02-07T08:25:27;13.23;;;8.67;;
41343;SDS011;27089;50.022;7.604;2023-02-07T08:27:54;12.43;;;7.83;;
41343;SDS011;27089;50.022;7.604;2023-02-07T08:30:21;11.93;;;7.70;;
41343;SDS011;27089;50.022;7.604;2023-02-07T08:32:49;12.57;;;7.97;;
41343;SDS011;27089;50.022;7.604;2023-02-07T08:35:17;9.10;;;7.00;;
41343;SDS011;27089;50.022;7.604;2023-02-07T08:37:44;12.27;;;7.80;;
41343;SDS011;27089;50.022;7.604;2023-02-07T08:40:11;10.43;;;7.00;;
41343;SDS011;27089;50.022;7.604;2023-02-07T08:42:40;11.03;;;6.93;;
41343;SDS011;27089;50.022;7.604;2023-02-07T08:45:07;11.50;;;7.97;;
41343;SDS011;27089;50.022;7.604;2023-02-07T08:47:35;14.20;;;8.10;;
41343;SDS011;27089;50.022;7.604;2023-02-07T08:50:02;12.00;;;8.10;;
41343;SDS011;27089;50.022;7.604;2023-02-07T08:52:30;11.60;;;7.47;;
41343;SDS011;27089;50.022;7.604;2023-02-07T08:54:57;11.83;;;7.60;;
41343;SDS011;27089;50.022;7.604;2023-02-07T08:57:24;11.47;;;7.33;;
41343;SDS011;27089;50.022;7.604;2023-02-07T08:59:52;11.43;;;7.87;;
41343;SDS011;27089;50.022;7.604;2023-02-07T09:02:19;13.70;;;9.03;;
41343;SDS011;27089;50.022;7.604;2023-02-07T09:04:46;9.67;;;7.27;;
41343;SDS011;27089;50.022;7.604;2023-02-07T09:07:14;9.77;;;6.87;;
41343;SDS011;27089;50.022;7.604;2023-02-07T09:09:41;11.20;;;7.63;;
41343;SDS011;27089;50.022;7.604;2023-02-07T09:12:08;10.00;;;6.70;;
41343;SDS011;27089;50.022;7.604;2023-02-07T09:14:35;12.13;;;7.43;;
41343;SDS011;27089;50.022;7.604;2023-02-07T09:17:04;15.13;;;8.27;;
41343;SDS011;27089;50.022;7.604;2023-02-07T09:19:32;11.40;;;7.83;;
41343;SDS011;27089;50.022;7.604;2023-02-07T09:22:00;14.00;;;6.60;;
41343;SDS011;27089;50.022;7.604;2023-02-07T09:24:27;12.87;;;7.23;;
41343;SDS011;27089;50.022;7.604;2023-02-07T09:26:54;11.10;;;7.10;;
41343;SDS011;27089;50.022;7.604;2023-02-07T09:29:21;14.50;;;7.10;;
41343;SDS011;27089;50.022;7.604;2023-02-07T09:31:48;10.60;;;6.90;;
41343;SDS011;27089;50.022;7.604;2023-02-07T09:34:16;9.17;;;6.07;;
41343;SDS011;27089;50.022;7.604;2023-02-07T09:36:43;11.80;;;6.97;;
41343;SDS011;27089;50.022;7.604;2023-02-07T09:39:11;9.90;;;6.83;;
41343;SDS011;27089;50.022;7.604;2023-02-07T09:41:41;11.67;;;7.10;;
41343;SDS011;27089;50.022;7.604;2023-02-07T09:44:14;11.73;;;6.77;;
41343;SDS011;27089;50.022;7.604;2023-02-07T09:46:46;9.53;;;6.67;;
41343;SDS011;27089;50.022;7.604;2023-02-07T09:49:30;9.93;;;6.37;;
41343;SDS011;27089;50.022;7.604;2023-02-07T09:52:02;12.20;;;7.20;;
41343;SDS011;27089;50.022;7.604;2023-02-07T09:54:32;9.60;;;6.00;;
41343;SDS011;27089;50.022;7.604;2023-02-07T09:57:04;9.83;;;6.10;;
41343;SDS011;27089;50.022;7.604;2023-02-07T09:59:39;8.80;;;5.57;;
41343;SDS011;27089;50.022;7.604;2023-02-07T10:02:14;10.07;;;6.27;;
41343;SDS011;27089;50.022;7.604;2023-02-07T10:04:49;15.03;;;7.50;;
41343;SDS011;27089;50.022;7.604;2023-02-07T10:07:19;10.87;;;7.13;;
41343;SDS011;27089;50.022;7.604;2023-02-07T10:09:46;11.43;;;6.77;;
41343;SDS011;27089;50.022;7.604;2023-02-07T10:12:27;15.50;;;7.37;;
41343;SDS011;27089;50.022;7.604;2023-02-07T10:15:08;12.63;;;7.60;;
41343;SDS011;27089;50.022;7.604;2023-02-07T10:17:48;10.33;;;6.80;;
41343;SDS011;27089;50.022;7.604;2023-02-07T10:20:31;14.63;;;8.23;;
41343;SDS011;27089;50.022;7.604;2023-02-07T10:23:09;11.60;;;6.83;;
41343;SDS011;27089;50.022;7.604;2023-02-07T10:25:52;12.27;;;7.10;;
41343;SDS011;27089;50.022;7.604;2023-02-07T10:28:33;11.20;;;6.87;;
41343;SDS011;27089;50.022;7.604;2023-02-07T10:31:12;11.10;;;7.03;;
41343;SDS011;27089;50.022;7.604;2023-02-07T10:33:45;9.80;;;6.30;;
41343;SDS011;27089;50.022;7.604;2023-02-07T10:36:16;11.23;;;6.83;;
41343;SDS011;27089;50.022;7.604;2023-02-07T10:38:45;12.40;;;7.57;;
41343;SDS011;27089;50.022;7.604;2023-02-07T10:41:19;11.53;;;7.63;;
41343;SDS011;27089;50.022;7.604;2023-02-07T10:43:52;9.63;;;6.63;;
41343;SDS011;27089;50.022;7.604;2023-02-07T10:46:19;9.33;;;6.20;;
41343;SDS011;27089;50.022;7.604;2023-02-07T10:48:48;10.63;;;7.77;;
41343;SDS011;27089;50.022;7.604;2023-02-07T10:51:30;10.20;;;6.77;;
41343;SDS011;27089;50.022;7.604;2023-02-07T10:54:01;8.73;;;6.40;;
41343;SDS011;27089;50.022;7.604;2023-02-07T10:56:32;10.03;;;6.40;;
41343;SDS011;27089;50.022;7.604;2023-02-07T10:59:03;10.37;;;6.67;;
41343;SDS011;27089;50.022;7.604;2023-02-07T11:01:31;8.10;;;6.20;;
41343;SDS011;27089;50.022;7.604;2023-02-07T11:03:59;8.37;;;6.27;;
41343;SDS011;27089;50.022;7.604;2023-02-07T11:06:28;9.13;;;6.53;;
41343;SDS011;27089;50.022;7.604;2023-02-07T11:09:09;8.03;;;5.97;;
41343;SDS011;27089;50.022;7.604;2023-02-07T11:11:46;8.63;;;6.60;;
41343;SDS011;27089;50.022;7.604;2023-02-07T11:14:15;7.67;;;6.40;;
41343;SDS011;27089;50.022;7.604;2023-02-07T11:16:51;8.77;;;5.87;;
41343;SDS011;27089;50.022;7.604;2023-02-07T11:19:21;8.80;;;6.37;;
41343;SDS011;27089;50.022;7.604;2023-02-07T11:21:53;9.37;;;6.13;;
41343;SDS011;27089;50.022;7.604;2023-02-07T11:24:33;7.90;;;5.70;;
41343;SDS011;27089;50.022;7.604;2023-02-07T11:27:03;9.43;;;6.40;;
41343;SDS011;27089;50.022;7.604;2023-02-07T11:29:35;6.97;;;5.37;;
41343;SDS011;27089;50.022;7.604;2023-02-07T11:32:09;8.53;;;6.13;;
41343;SDS011;27089;50.022;7.604;2023-02-07T11:34:41;8.40;;;6.13;;
41343;SDS011;27089;50.022;7.604;2023-02-07T11:37:23;8.17;;;6.00;;
41343;SDS011;27089;50.022;7.604;2023-02-07T11:42:46;8.03;;;5.43;;
41343;SDS011;27089;50.022;7.604;2023-02-07T11:45:16;8.83;;;4.97;;
41343;SDS011;27089;50.022;7.604;2023-02-07T11:47:47;7.60;;;5.37;;
41343;SDS011;27089;50.022;7.604;2023-02-07T11:50:17;10.30;;;6.13;;
41343;SDS011;27089;50.022;7.604;2023-02-07T11:52:50;8.70;;;5.33;;
41343;SDS011;27089;50.022;7.604;2023-02-07T11:55:21;8.20;;;5.27;;
41343;SDS011;27089;50.022;7.604;2023-02-07T11:57:53;9.63;;;5.30;;
41343;SDS011;27089;50.022;7.604;2023-02-07T12:00:23;8.23;;;5.03;;
41343;SDS011;27089;50.022;7.604;2023-02-07T12:02:58;7.77;;;5.50;;
41343;SDS011;27089;50.022;7.604;2023-02-07T12:05:27;9.87;;;5.00;;
41343;SDS011;27089;50.022;7.604;2023-02-07T12:07:59;8.17;;;4.83;;
41343;SDS011;27089;50.022;7.604;2023-02-07T12:10:29;7.17;;;4.80;;
41343;SDS011;27089;50.022;7.604;2023-02-07T12:12:59;8.17;;;5.03;;
41343;SDS011;27089;50.022;7.604;2023-02-07T12:15:31;8.70;;;5.27;;
41343;SDS011;27089;50.022;7.604;2023-02-07T12:18:02;7.07;;;4.80;;
41343;SDS011;27089;50.022;7.604;2023-02-07T12:20:36;8.67;;;5.30;;
41343;SDS011;27089;50.022;7.604;2023-02-07T12:23:11;6.97;;;4.93;;
41343;SDS011;27089;50.022;7.604;2023-02-07T12:25:45;8.73;;;5.13;;
41343;SDS011;27089;50.022;7.604;2023-02-07T12:28:17;7.37;;;4.80;;
41343;SDS011;27089;50.022;7.604;2023-02-07T12:30:52;6.23;;;4.40;;
41343;SDS011;27089;50.022;7.604;2023-02-07T12:33:26;8.27;;;5.20;;
41343;SDS011;27089;50.022;7.604;2023-02-07T12:36:05;9.33;;;6.20;;
41343;SDS011;27089;50.022;7.604;2023-02-07T12:38:41;6.90;;;4.80;;
41343;SDS011;27089;50.022;7.604;2023-02-07T12:41:13;9.40;;;4.87;;
41343;SDS011;27089;50.022;7.604;2023-02-07T12:43:47;7.57;;;5.47;;
41343;SDS011;27089;50.022;7.604;2023-02-07T12:46:30;9.77;;;5.03;;
41343;SDS011;27089;50.022;7.604;2023-02-07T12:49:08;6.30;;;4.67;;
41343;SDS011;27089;50.022;7.604;2023-02-07T12:51:44;8.07;;;5.40;;
41343;SDS011;27089;50.022;7.604;2023-02-07T12:54:25;9.37;;;5.80;;
41343;SDS011;27089;50.022;7.604;2023-02-07T12:57:03;8.37;;;4.97;;
41343;SDS011;27089;50.022;7.604;2023-02-07T12:59:38;7.77;;;5.80;;
41343;SDS011;27089;50.022;7.604;2023-02-07T13:02:20;8.00;;;5.30;;
41343;SDS011;27089;50.022;7.604;2023-02-07T13:05:16;8.30;;;5.80;;
41343;SDS011;27089;50.022;7.604;2023-02-07T13:07:57;6.67;;;4.73;;
41343;SDS011;27089;50.022;7.604;2023-02-07T13:10:38;10.13;;;5.50;;
41343;SDS011;27089;50.022;7.604;2023-02-07T13:13:16;8.90;;;5.37;;
41343;SDS011;27089;50.022;7.604;2023-02-07T13:15:49;9.70;;;5.87;;
41343;SDS011;27089;50.022;7.604;2023-02-07T13:18:22;9.83;;;5.50;;
41343;SDS011;27089;50.022;7.604;2023-02-07T13:21:00;5.87;;;4.40;;
41343;SDS011;27089;50.022;7.604;2023-02-07T13:23:36;8.97;;;4.80;;
41343;SDS011;27089;50.022;7.604;2023-02-07T13:26:09;19.27;;;14.60;;
41343;SDS011;27089;50.022;7.604;2023-02-07T13:28:40;7.30;;;4.43;;
41343;SDS011;27089;50.022;7.604;2023-02-07T13:31:12;8.53;;;4.63;;
41343;SDS011;27089;50.022;7.604;2023-02-07T13:33:42;12.60;;;7.57;;
41343;SDS011;27089;50.022;7.604;2023-02-07T13:36:13;7.87;;;4.57;;
41343;SDS011;27089;50.022;7.604;2023-02-07T13:38:55;7.60;;;4.50;;
41343;SDS011;27089;50.022;7.604;2023-02-07T13:41:32;7.53;;;4.60;;
41343;SDS011;27089;50.022;7.604;2023-02-07T13:44:07;6.20;;;4.50;;
41343;SDS011;27089;50.022;7.604;2023-02-07T13:49:56;7.10;;;3.97;;
41343;SDS011;27089;50.022;7.604;2023-02-07T13:52:30;9.53;;;4.50;;
41343;SDS011;27089;50.022;7.604;2023-02-07T13:55:08;7.50;;;4.40;;
41343;SDS011;27089;50.022;7.604;2023-02-07T13:57:48;8.23;;;4.77;;
41343;SDS011;27089;50.022;7.604;2023-02-07T14:00:33;8.10;;;5.27;;
41343;SDS011;27089;50.022;7.604;2023-02-07T14:03:27;8.30;;;5.50;;
41343;SDS011;27089;50.022;7.604;2023-02-07T14:06:12;7.13;;;5.07;;
41343;SDS011;27089;50.022;7.604;2023-02-07T14:08:42;7.00;;;4.50;;
41343;SDS011;27089;50.022;7.604;2023-02-07T14:11:20;7.50;;;6.13;;
41343;SDS011;27089;50.022;7.604;2023-02-07T14:14:03;7.87;;;4.97;;
41343;SDS011;27089;50.022;7.604;2023-02-07T14:16:44;9.87;;;6.43;;
41343;SDS011;27089;50.022;7.604;2023-02-07T14:19:13;7.70;;;5.03;;
41343;SDS011;27089;50.022;7.604;2023-02-07T14:21:43;8.43;;;4.73;;
41343;SDS011;27089;50.022;7.604;2023-02-07T14:24:17;9.83;;;5.40;;
41343;SDS011;27089;50.022;7.604;2023-02-07T14:26:56;7.53;;;4.93;;
41343;SDS011;27089;50.022;7.604;2023-02-07T14:29:39;6.50;;;5.03;;
41343;SDS011;27089;50.022;7.604;2023-02-07T14:32:25;9.67;;;5.40;;
41343;SDS011;27089;50.022;7.604;2023-02-07T14:38:00;8.63;;;5.20;;
41343;SDS011;27089;50.022;7.604;2023-02-07T14:40:34;7.90;;;5.33;;
41343;SDS011;27089;50.022;7.604;2023-02-07T14:43:22;7.83;;;4.83;;
41343;SDS011;27089;50.022;7.604;2023-02-07T14:46:04;8.50;;;5.07;;
41343;SDS011;27089;50.022;7.604;2023-02-07T14:48:36;8.60;;;5.67;;
41343;SDS011;27089;50.022;7.604;2023-02-07T14:51:10;7.43;;;4.60;;
41343;SDS011;27089;50.022;7.604;2023-02-07T14:53:40;16.80;;;10.10;;
41343;SDS011;27089;50.022;7.604;2023-02-07T14:56:14;7.17;;;4.90;;
41343;SDS011;27089;50.022;7.604;2023-02-07T14:58:54;5.30;;;3.97;;
41343;SDS011;27089;50.022;7.604;2023-02-07T15:01:27;6.70;;;4.77;;
41343;SDS011;27089;50.022;7.604;2023-02-07T15:04:00;5.97;;;4.40;;
41343;SDS011;27089;50.022;7.604;2023-02-07T15:06:34;6.60;;;4.87;;
41343;SDS011;27089;50.022;7.604;2023-02-07T15:09:04;6.13;;;4.33;;
41343;SDS011;27089;50.022;7.604;2023-02-07T15:11:31;5.07;;;3.60;;
41343;SDS011;27089;50.022;7.604;2023-02-07T15:14:00;7.33;;;4.67;;
41343;SDS011;27089;50.022;7.604;2023-02-07T15:16:31;30.27;;;21.03;;
41343;SDS011;27089;50.022;7.604;2023-02-07T15:19:11;6.73;;;4.20;;
41343;SDS011;27089;50.022;7.604;2023-02-07T15:21:44;9.13;;;6.60;;
41343;SDS011;27089;50.022;7.604;2023-02-07T15:24:15;6.20;;;4.20;;